Terminal Aerodrome Forecast
Issued by NWS Northern Indiana

Home | Current Version | Previous Version | Graphics & Text | Print | Product List | Glossary On
Versions: 1 2 3 4 5 6 7 8 9 10 11 12
000
FTUS43 KIWX 022336
TAFFWA
TAF
KFWA 022336Z 0300/0324 07010KT P6SM FEW050 BKN250
     FM030400 05005KT P6SM SCT250 WS008/09028KT
     FM031400 07006KT P6SM SCT030
     FM031900 06008KT P6SM SCT045=

USA.gov is the U.S. government's official web portal to all federal, state and local government web resources and services.